Terminal Aerodrome Forecast
Issued by NWS Spokane, WA

Home | Current Version | Previous Version | Text Only | Print | Product List | Glossary On
Versions: 1 2 3 4 5 6 7 8 9 10 11 12 13
000
FTUS46 KOTX 231737
TAFEAT
TAF
KEAT 231737Z 2318/2418 31008KT P6SM BKN120 BKN200
     FM232100 29009KT P6SM VCSH BKN060 BKN100
     FM240300 30011KT P6SM SCT080 BKN120
     FM241600 31006KT P6SM VCSH BKN060 OVC120=

USA.gov is the U.S. government's official web portal to all federal, state and local government web resources and services.